You are not logged in, Click here to log in
機場資訊:ESSA Welcome to Taiwan Airways 台灣虛擬航空
ICAO: ESSA Country: 瑞典斯德哥爾摩省錫格蒂納
Latitude: 59.6498 Longitude: 17.9238
Total Arrivals: 5 Total Departures: 6
Latest Arrival: SK1418 (EKCH-ESSA)ALAN. LIU Latest Departure: LH803 (ESSA-EDDF)ALAN. LIU
Scenery:
METAR : ESSA 141820Z 34004KT 9999 FEW008 BKN026 07/06 Q1015 TEMPO BKN009

斯德哥爾摩-阿蘭達機場ARN